Flight Track Log - Related Links

Times and Time Zones

All times are in EST time to prevent confusion due to time zone crossing. See the SWA424 flight status page for this flight to view local times or setup timezone preferences in your user account.

Time Position Orientation Groundspeed Altitude Reporting Facility
EST Latitude Longitude Course Direction KTS MPH feet Rate Location/Type
Wed 09:36:24 PM 41.8000 -87.8167 243° Southwest 191 220 2,400  Level Chicago TRACON
Wed 09:36:54 PM 41.7858 -87.8547 243° Southwest 222 255 3,600 1,239 Climbing Chicago Center
Wed 09:37:56 PM 41.7719 -87.9414 258° West 235 270 4,300 634 Climbing Chicago Center
Wed 09:38:57 PM 41.7747 -88.0328 272° West 243 280 4,900 295 Climbing Chicago Center
Wed 09:39:58 PM 41.7775 -88.1228 272° West 245 282 4,900 390 Level Chicago Center
Wed 09:41:00 PM 41.7797 -88.2119 272° West 243 280 5,700 1,742 Climbing Chicago Center
Wed 09:42:02 PM 41.7825 -88.3019 272° West 243 280 8,500 2,607 Climbing Chicago Center
Wed 09:43:02 PM 41.7850 -88.4025 272° West 267 307 11,000 3,000 Climbing Chicago Center
Wed 09:44:04 PM 41.7886 -88.5308 272° West 287 330 14,600 2,146 Climbing Chicago Center
Wed 09:45:05 PM 41.7875 -88.6439 269° West 302 348 15,400 1,180 Climbing Chicago Center
Wed 09:46:06 PM 41.7797 -88.7828 266° West 365 420 17,000 1,561 Climbing Chicago Center
Wed 09:47:08 PM 41.7697 -88.9281 265° West 385 443 18,600 1,707 Climbing Chicago Center
Wed 09:48:09 PM 41.7614 -89.0842 266° West 410 472 20,500 1,967 Climbing Chicago Center
Wed 09:49:10 PM 41.7519 -89.2431 265° West 427 491 22,600 1,707 Climbing Chicago Center
Wed 09:50:12 PM 41.7428 -89.4033 266° West 431 496 24,000 1,463 Climbing Chicago Center
Wed 09:51:13 PM 41.7336 -89.5664 266° West 443 510 25,600 1,574 Climbing Chicago Center
Wed 09:52:14 PM 41.7169 -89.7725 264° West 460 529 27,200 1,659 Climbing Chicago Center
Wed 09:53:16 PM 41.7050 -89.9417 265° West 460 529 29,000 1,659 Climbing Chicago Center
Wed 09:54:17 PM 41.6931 -90.1086 265° West 457 526 30,600 1,721 Climbing Chicago Center
Wed 09:55:18 PM 41.6814 -90.2700 265° West 445 512 32,500 1,574 Climbing Chicago Center
Wed 09:56:19 PM 41.6697 -90.4256 264° West 427 491 33,800 927 Climbing Chicago Center
Wed 09:57:21 PM 41.6581 -90.5825 264° West 425 489 34,400 878 Climbing Chicago Center
Wed 09:58:22 PM 41.6383 -90.7592 262° West 429 494 35,600 787 Climbing Chicago Center
Wed 09:59:23 PM 41.6214 -90.9153 262° West 426 490 36,000 197 Climbing Chicago Center
Wed 10:00:24 PM 41.6056 -91.0722 262° West 426 490 36,000  Level Chicago Center
Wed 10:01:25 PM 41.5881 -91.2289 262° West 429 494 36,000  Level Chicago Center
Wed 10:02:27 PM 41.5722 -91.3792 262° West 416 479 36,000  Level Chicago Center
Wed 10:03:28 PM 41.5547 -91.5303 261° West 413 475 36,000  Level Chicago Center
Wed 10:04:29 PM 41.5381 -91.6825 262° West 414 476 36,000  Level Chicago Center
Wed 10:05:30 PM 41.5206 -91.8367 261° West 420 483 36,000  Level Chicago Center
Wed 10:06:32 PM 41.5022 -91.9889 261° West 418 481 36,000  Level Chicago Center
Wed 10:07:32 PM 41.4822 -92.1706 262° West 415 478 36,000  Level Chicago Center
Wed 10:08:34 PM 41.4639 -92.3242 261° West 420 483 36,000  Level Chicago Center
Wed 10:09:35 PM 41.4433 -92.4764 260° West 421 484 36,000  Level Chicago Center
Wed 10:10:36 PM 41.4256 -92.6261 261° West 417 480 36,000  Level Chicago Center
Wed 10:11:37 PM 41.4081 -92.7739 261° West 410 472 36,000  Level Chicago Center
Wed 10:12:38 PM 41.3889 -92.9236 260° West 413 475 36,000  Level Chicago Center
Wed 10:13:39 PM 41.3706 -93.0728 261° West 414 476 36,000  Level Chicago Center
Wed 10:14:41 PM 41.3519 -93.2200 260° West 410 472 36,000  Level Chicago Center
Wed 10:15:42 PM 41.3303 -93.3978 261° West 410 472 36,000  Level Chicago Center
Wed 10:16:43 PM 41.3106 -93.5425 260° West 404 465 36,000  Level Chicago Center
Wed 10:17:44 PM 41.2914 -93.6900 260° West 408 470 36,000  Level Chicago Center
Wed 10:18:46 PM 41.2733 -93.8367 261° West 406 467 36,000  Level Chicago Center
Wed 10:19:47 PM 41.2525 -93.9842 259° West 409 471 36,000  Level Chicago Center
Wed 10:20:48 PM 41.2331 -94.1311 260° West 409 471 36,000  Level Chicago Center
Wed 10:21:49 PM 41.2125 -94.2778 259° West 408 470 36,000  Level Chicago Center
Wed 10:22:50 PM 41.1919 -94.4269 260° West 412 474 36,000  Level Chicago Center
Wed 10:23:51 PM 41.1669 -94.6036 259° West 411 473 36,000  Level Chicago Center
Wed 10:25:01 PM 41.1475 -94.7550 260° West 411 473 36,000  Level Minneapolis Center
Wed 10:26:02 PM 41.1264 -94.9017 259° West 408 470 36,000  Level Minneapolis Center
Wed 10:27:03 PM 41.1014 -95.0778 259° West 406 467 36,000  Level Minneapolis Center
Wed 10:28:04 PM 41.0792 -95.2239 259° West 405 466 36,000  Level Minneapolis Center
Wed 10:29:05 PM 41.0581 -95.3697 259° West 404 465 36,000  Level Minneapolis Center
Wed 10:30:06 PM 41.0367 -95.5150 259° West 401 461 36,000  Level Minneapolis Center
Wed 10:31:07 PM 41.0150 -95.6594 259° West 399 459 36,000  Level Minneapolis Center
Wed 10:32:09 PM 40.9928 -95.8047 259° West 399 459 36,000  Level Minneapolis Center
Wed 10:33:10 PM 40.9714 -95.9506 259° West 400 460 36,000  Level Minneapolis Center
Wed 10:34:11 PM 40.9483 -96.0961 258° West 401 461 36,000  Level Minneapolis Center
Wed 10:35:12 PM 40.9258 -96.2428 259° West 402 463 36,000  Level Minneapolis Center
Wed 10:36:13 PM 40.9031 -96.3881 258° West 402 463 36,000  Level Minneapolis Center
Wed 10:37:14 PM 40.8797 -96.5339 258° West 403 464 36,000  Level Minneapolis Center
Wed 10:38:15 PM 40.8581 -96.6806 259° West 404 465 36,000  Level Minneapolis Center
Wed 10:39:16 PM 40.8347 -96.8211 258° West 400 460 36,000  Level Minneapolis Center
Wed 10:40:17 PM 40.8111 -96.9628 258° West 397 457 36,000  Level Minneapolis Center
Wed 10:41:18 PM 40.7889 -97.1031 258° West 394 453 36,000  Level Minneapolis Center
Wed 10:42:19 PM 40.7664 -97.2414 258° West 390 449 36,000  Level Minneapolis Center
Wed 10:43:20 PM 40.7392 -97.4067 258° West 387 445 36,000  Level Minneapolis Center
Wed 10:44:21 PM 40.7167 -97.5436 258° West 384 442 36,000  Level Minneapolis Center
Wed 10:45:22 PM 40.6931 -97.6808 257° West 384 442 36,000  Level Minneapolis Center
Wed 10:46:23 PM 40.6700 -97.8178 258° West 383 441 36,000  Level Minneapolis Center
Wed 10:47:24 PM 40.6461 -97.9547 257° West 383 441 36,000  Level Minneapolis Center
Wed 10:48:25 PM 40.6231 -98.0903 257° West 380 437 36,000  Level Minneapolis Center
Wed 10:49:26 PM 40.5992 -98.2258 257° West 379 436 36,000  Level Minneapolis Center
Wed 10:50:27 PM 40.5761 -98.3603 257° West 376 433 36,000  Level Minneapolis Center
Wed 10:51:28 PM 40.5533 -98.4944 257° West 374 430 36,000  Level Minneapolis Center
Wed 10:52:29 PM 40.5292 -98.6278 257° West 373 429 36,000  Level Minneapolis Center
Wed 10:53:30 PM 40.5050 -98.7611 257° West 373 429 36,000  Level Minneapolis Center
Wed 10:54:31 PM 40.4806 -98.8961 257° West 376 433 36,000  Level Minneapolis Center
Wed 10:55:32 PM 40.4572 -99.0297 257° West 375 432 36,000  Level Minneapolis Center
Wed 10:56:22 PM 40.4375 -99.1381 257° West 376 433 36,000  Level Denver Center
Wed 10:57:23 PM 40.4131 -99.2711 256° West 375 432 36,000  Level Denver Center
Wed 10:58:24 PM 40.3883 -99.4056 256° West 377 434 36,000  Level Denver Center
Wed 10:59:25 PM 40.3636 -99.5400 256° West 378 435 36,000  Level Denver Center
Wed 11:00:38 PM 40.3372 -99.6728 255° West 377 434 36,000  Level Denver Center
Wed 11:01:40 PM 40.3072 -99.8314 256° West 375 432 36,000  Level Denver Center
Wed 11:02:41 PM 40.2781 -99.9900 256° West 370 426 36,000  Level Denver Center
Wed 11:03:42 PM 40.2542 -100.1147 256° West 368 423 36,000  Level Denver Center
Wed 11:04:43 PM 40.2297 -100.2389 256° West 368 423 36,000  Level Denver Center
Wed 11:05:45 PM 40.2022 -100.3811 256° West 363 418 36,000  Level Denver Center
Wed 11:06:46 PM 40.1786 -100.5036 256° West 362 417 36,000  Level Denver Center
Wed 11:07:47 PM 40.1506 -100.6442 255° West 359 413 36,000  Level Denver Center
Wed 11:08:49 PM 40.1272 -100.7628 256° West 352 405 36,000  Level Denver Center
Wed 11:09:49 PM 40.1028 -100.8828 255° West 355 409 36,000  Level Denver Center
Wed 11:10:50 PM 40.0744 -101.0228 255° West 356 410 36,000  Level Denver Center
Wed 11:11:51 PM 40.0503 -101.1442 255° West 360 414 36,000  Level Denver Center
Wed 11:12:53 PM 40.0261 -101.2647 255° West 359 413 36,000  Level Denver Center
Wed 11:13:54 PM 39.9967 -101.4072 255° West 365 420 36,000  Level Denver Center
Wed 11:14:55 PM 39.9719 -101.5311 255° West 365 420 36,000  Level Denver Center
Wed 11:15:56 PM 39.9464 -101.6558 255° West 371 427 36,000  Level Denver Center
Wed 11:16:57 PM 39.9161 -101.8000 255° West 371 427 36,000  Level Denver Center
Wed 11:17:58 PM 39.8903 -101.9225 255° West 369 425 36,000  Level Denver Center
Wed 11:18:59 PM 39.8636 -102.0450 254° West 366 421 36,000  Level Denver Center
Wed 11:20:00 PM 39.8342 -102.1875 255° West 365 420 36,000  Level Denver Center
Wed 11:21:01 PM 39.8086 -102.3069 254° West 361 415 36,000  Level Denver Center
Wed 11:22:02 PM 39.7831 -102.4281 255° West 362 417 36,000  Level Denver Center
Wed 11:23:03 PM 39.7519 -102.5703 254° West 366 421 36,000  Level Denver Center
Wed 11:24:04 PM 39.7250 -102.6917 254° West 365 420 36,000  Level Denver Center
Wed 11:25:17 PM 39.6922 -102.8408 254° West 370 426 36,000  Level Denver Center
Wed 11:26:18 PM 39.6656 -102.9689 255° West 368 423 36,000  Level Denver Center
Wed 11:27:19 PM 39.6303 -103.1236 254° West 372 428 36,000  Level Denver Center
Wed 11:28:20 PM 39.6019 -103.2517 254° West 372 428 36,000  Level Denver Center
Wed 11:29:21 PM 39.5736 -103.3789 254° West 369 425 36,000  Level Denver Center
Wed 11:30:22 PM 39.5447 -103.5061 254° West 367 422 36,000  Level Denver Center
Wed 11:31:23 PM 39.5172 -103.6317 254° West 364 419 36,000  Level Denver Center
Wed 11:32:24 PM 39.4889 -103.7569 254° West 364 419 36,000  Level Denver Center
Wed 11:33:25 PM 39.4600 -103.8831 254° West 364 419 36,000  Level Denver Center
Wed 11:34:26 PM 39.4297 -104.0094 253° West 367 422 36,000  Level Denver Center
Wed 11:35:27 PM 39.4014 -104.1372 254° West 369 425 36,000  Level Denver Center
Wed 11:36:28 PM 39.3708 -104.2644 253° West 370 426 36,000  Level Denver Center
Wed 11:37:29 PM 39.3419 -104.3933 254° West 372 428 36,000  Level Denver Center
Wed 11:38:30 PM 39.3106 -104.5236 253° West 377 434 36,000  Level Denver Center
Wed 11:39:31 PM 39.2800 -104.6547 253° West 379 436 36,000  Level Denver Center
Wed 11:40:32 PM 39.2553 -104.7589 253° West 378 435 36,000  Level Denver Center
Wed 11:41:33 PM 39.2178 -104.9150 253° West 379 436 36,000  Level Denver Center
Wed 11:42:34 PM 39.1872 -105.0444 253° West 377 434 36,000  Level Denver Center
Wed 11:43:35 PM 39.1547 -105.1775 253° West 387 445 36,000  Level Denver Center
Wed 11:44:36 PM 39.1164 -105.3356 253° West 385 443 36,000  Level Denver Center
Wed 11:45:37 PM 39.0839 -105.4700 253° West 394 453 36,000  Level Denver Center
Wed 11:46:38 PM 39.0500 -105.6050 252° West 398 458 36,000  Level Denver Center
Wed 11:47:39 PM 39.0183 -105.7350 253° West 385 443 36,000  Level Denver Center
Wed 11:48:40 PM 38.9856 -105.8644 252° West 381 438 36,000  Level Denver Center
Wed 11:49:41 PM 38.9528 -105.9933 252° West 381 438 36,000  Level Denver Center
Wed 11:50:42 PM 38.9203 -106.1258 253° West 388 447 36,000  Level Denver Center
Wed 11:51:43 PM 38.8869 -106.2578 252° West 386 444 36,000  Level Denver Center
Wed 11:52:44 PM 38.8533 -106.3842 251° West 384 442 36,000  Level Denver Center
Wed 11:53:45 PM 38.8203 -106.5111 252° West 378 435 36,000  Level Denver Center
Wed 11:54:58 PM 38.7900 -106.6358 253° West 369 425 36,000  Level Denver Center
Wed 11:55:59 PM 38.7500 -106.7872 251° West 371 427 36,000  Level Denver Center
Wed 11:57:00 PM 38.7161 -106.9183 252° West 384 442 36,000  Level Denver Center
Wed 11:58:01 PM 38.6822 -107.0469 251° West 381 438 36,000  Level Denver Center
Wed 11:59:02 PM 38.6439 -107.1936 252° West 381 438 36,000  Level Denver Center
Thu 12:00:03 AM 38.6111 -107.3158 251° West 380 437 36,000  Level Denver Center
Thu 12:01:04 AM 38.5736 -107.4581 251° West 378 435 36,000  Level Denver Center
Thu 12:02:05 AM 38.5417 -107.5800 252° West 378 435 36,000  Level Denver Center
Thu 12:03:06 AM 38.5089 -107.7028 251° West 381 438 36,000  Level Denver Center
Thu 12:04:06 AM 38.4717 -107.8453 252° West 379 436 36,000  Level Denver Center
Thu 12:05:07 AM 38.4375 -107.9692 251° West 383 441 36,000  Level Denver Center
Thu 12:06:08 AM 38.4044 -108.0908 251° West 381 438 36,000  Level Denver Center
Thu 12:07:09 AM 38.3656 -108.2339 251° West 382 440 36,000  Level Denver Center
Thu 12:08:10 AM 38.3306 -108.3581 250° West 385 443 36,000  Level Denver Center
Thu 12:09:11 AM 38.2969 -108.4817 251° West 385 443 36,000  Level Denver Center
Thu 12:10:12 AM 38.2561 -108.6264 250° West 387 445 36,000  Level Denver Center
Thu 12:11:12 AM 38.2219 -108.7492 251° West 385 443 36,000  Level Denver Center
Thu 12:12:13 AM 38.1875 -108.8717 250° West 385 443 36,000  Level Denver Center
Thu 12:13:14 AM 38.1472 -109.0158 250° West 386 444 36,000  Level Denver Center
Thu 12:14:27 AM 38.1131 -109.1367 250° West 383 441 36,000  Level Denver Center
Thu 12:15:28 AM 38.0717 -109.2781 250° West 380 437 36,000 -443 Level Denver Center
Thu 12:16:29 AM 38.0331 -109.4131 250° West 387 445 35,100 -984 Descending Denver Center
Thu 12:17:30 AM 37.9914 -109.5589 250° West 394 453 34,000 -992 Descending Denver Center
Thu 12:18:30 AM 37.9544 -109.6864 250° West 402 463 33,100 -942 Descending Denver Center
Thu 12:19:31 AM 37.9164 -109.8169 250° West 411 473 32,100 -541 Descending Denver Center
Thu 12:20:32 AM 37.8844 -109.9261 250° West 416 479 32,000 -49 Descending Denver Center
Thu 12:21:33 AM 37.8344 -110.0989 250° West 413 475 32,000  Level Denver Center
Thu 12:22:34 AM 37.7961 -110.2303 250° West 416 479 32,000  Level Denver Center
Thu 12:23:34 AM 37.7506 -110.3811 249° West 415 478 32,000  Level Denver Center
Thu 12:24:35 AM 37.7128 -110.5111 250° West 413 475 32,000  Level Denver Center
Thu 12:25:36 AM 37.6700 -110.6525 249° West 416 479 32,000  Level Denver Center
Thu 12:26:37 AM 37.6286 -110.7889 249° West 418 481 32,000  Level Denver Center
Thu 12:27:38 AM 37.5878 -110.9250 249° West 416 479 32,000  Level Denver Center
Thu 12:28:50 AM 37.5475 -111.0606 249° West 414 476 32,000  Level Denver Center
Thu 12:30:03 AM 37.4878 -111.2508 248° West 416 479 32,000  Level Denver Center
Thu 12:31:04 AM 37.4467 -111.3856 249° West 415 478 32,000  Level Denver Center
Thu 12:32:05 AM 37.4047 -111.5217 249° West 417 480 32,000  Level Denver Center
Thu 12:33:06 AM 37.3647 -111.6553 249° West 410 472 32,000  Level Denver Center
Thu 12:34:06 AM 37.3211 -111.7906 248° West 417 480 32,000  Level Denver Center
Thu 12:35:07 AM 37.2789 -111.9236 248° West 412 474 32,000  Level Denver Center
Thu 12:36:08 AM 37.2372 -112.0575 249° West 411 473 32,000  Level Denver Center
Thu 12:37:09 AM 37.1958 -112.1894 249° West 408 470 32,000  Level Denver Center
Thu 12:38:09 AM 37.1572 -112.3233 250° West 408 470 32,000  Level Denver Center
Thu 12:39:10 AM 37.1622 -112.4625 273° West 401 461 32,000  Level Denver Center
Thu 12:40:39 AM 37.1844 -112.6811 277° West 395 455 32,000  Level Los Angeles Center
Thu 12:41:40 AM 37.1997 -112.8186 278° West 396 456 32,000 -492 Level Los Angeles Center
Thu 12:42:41 AM 37.2150 -112.9564 278° West 396 456 31,000 -984 Descending Los Angeles Center
Thu 12:43:42 AM 37.2044 -113.0942 265° West 403 464 30,000 -1,033 Descending Los Angeles Center
Thu 12:44:43 AM 37.1339 -113.2072 232° Southwest 409 471 28,900 -1,033 Descending Los Angeles Center
Thu 12:45:44 AM 37.0647 -113.3172 232° Southwest 403 464 27,900 -976 Descending Los Angeles Center
Thu 12:46:46 AM 36.9961 -113.4258 232° Southwest 398 458 26,900 -976 Descending Los Angeles Center
Thu 12:47:47 AM 36.9272 -113.5350 232° Southwest 398 458 25,900 -1,033 Descending Los Angeles Center
Thu 12:48:48 AM 36.8592 -113.6411 231° Southwest 393 452 24,800 -1,033 Descending Los Angeles Center
Thu 12:49:49 AM 36.7756 -113.7733 232° Southwest 406 467 23,800 -1,131 Descending Los Angeles Center
Thu 12:50:50 AM 36.7033 -113.8853 231° Southwest 414 476 22,500 -1,770 Descending Los Angeles Center
Thu 12:51:51 AM 36.6378 -113.9894 232° Southwest 392 451 20,200 -2,164 Descending Los Angeles Center
Thu 12:52:52 AM 36.5722 -114.0892 231° Southwest 378 435 18,100 -2,016 Descending Los Angeles Center
Thu 12:53:53 AM 36.5228 -114.1958 240° Southwest 362 417 16,100 -1,967 Descending Los Angeles Center
Thu 12:54:54 AM 36.4808 -114.2936 242° Southwest 354 407 14,100 -2,308 Descending Los Angeles Center
Thu 12:54:58 AM 36.4667 -114.3214 238° Southwest 357 411 13,600 -1,962 Descending Los Angeles Center
Thu 12:55:46 AM 36.4289 -114.4039 240° Southwest 360 414 12,400 -1,345 Descending Los Angeles Center
Thu 12:55:56 AM 36.4200 -114.4222 239° Southwest 359 413 12,300 -358 Descending Los Angeles Center
Thu 12:56:53 AM 36.3553 -114.4906 220° Southwest 333 383 12,000 -295 Descending Los Angeles Center
Thu 12:56:57 AM 36.3519 -114.4886 155° Southeast 352 405 12,000 -984 Level Los Angeles Center
Thu 12:57:54 AM 36.2683 -114.5094 191° South 318 366 11,000 -984 Descending Los Angeles Center
Thu 12:57:58 AM 36.2642 -114.5081 165° South 324 373 11,000 -1,333 Level Los Angeles Center
Thu 12:58:48 AM 36.2103 -114.5583 217° Southwest 302 348 9,800 -1,377 Descending Los Angeles Center
Thu 12:58:59 AM 36.1992 -114.5717 224° Southwest 301 346 9,600 -1,091 Descending Los Angeles Center
Thu 12:59:43 AM 36.1561 -114.6275 226° Southwest 289 333 8,800 -811 Descending Los Angeles Center
Thu 01:00:13 AM 36.1425 -114.6411 219° Southwest 292 336 8,600 -885 Descending Los Angeles Center
Thu 01:00:44 AM 36.1003 -114.6969 227° Southwest 283 326 7,900 -590 Descending Los Angeles Center
Thu 01:01:14 AM 36.0767 -114.7242 223° Southwest 285 328 8,000 -500 Climbing Los Angeles Center
Thu 01:01:44 AM 36.0728 -114.7781 265° West 267 307 7,400 -984 Descending Los Angeles Center
Thu 01:02:15 AM 36.0725 -114.8156 269° West 278 320 7,000 -885 Descending Los Angeles Center
Thu 01:02:45 AM 36.0739 -114.8708 272° West 271 312 6,500 -1,258 Descending Los Angeles Center
Thu 01:03:17 AM 36.0736 -114.9108 270° West 270 311 5,700 -1,800 Descending Los Angeles Center
Thu 01:03:45 AM 36.0731 -114.9564 269° West 232 267 4,700 -1,500 Descending Los Angeles Center
Thu 01:04:17 AM 36.0736 -114.9922 271° West 222 255 4,200 -984 Descending Los Angeles Center
Thu 01:04:46 AM 36.0725 -115.0231 267° West 190 219 3,700 -984 Descending Los Angeles Center
Thu 01:05:18 AM 36.0739 -115.0533 273° West 186 214 3,200 -885 Descending Los Angeles Center
Thu 01:05:47 AM 36.0744 -115.0808 271° West 168 193 2,800 -787 Descending Los Angeles Center
Thu 01:06:19 AM 36.0733 -115.1069 267° West 162 186 2,400 -516 Descending Los Angeles Center
Thu 01:07:20 AM 36.0731 -115.1475 270° West 142 163 2,000 -393 Descending Los Angeles Center

Login

Don't have an account? Register now (free) for customized features, flight alerts, and more!